Time;durP1;ratioP1;P1;durP2;ratioP2;P2;SDS_P1;SDS_P2;PMS_P1;PMS_P2;Temp;Humidity;BMP_temperature;BMP_pressure;BME280_temperature;BME280_humidity;BME280_pressure;Samples;Min_cycle;Max_cycle;Signal;HPM_P1;HPM_P2
2020/12/28 00:01:10;;;;;;;14.60;4.15;;;;;;;2.44;86.57;96155.75;5092059;28;20036;-54
2020/12/28 00:03:36;;;;;;;16.15;3.80;;;;;;;2.42;86.52;96158.09;5090449;28;20089;-56
2020/12/28 00:06:02;;;;;;;13.82;5.22;;;;;;;2.40;86.42;96161.25;5091929;28;20052;-53
2020/12/28 00:08:29;;;;;;;17.15;5.18;;;;;;;2.39;86.38;96158.91;5091862;28;20097;-56
2020/12/28 00:10:55;;;;;;;16.17;2.75;;;;;;;2.37;86.54;96150.34;5076308;28;20051;-57
2020/12/28 00:13:24;;;;;;;14.63;3.40;;;;;;;2.38;86.35;96144.47;5072711;28;20425;-57
2020/12/28 00:15:50;;;;;;;14.70;4.47;;;;;;;2.39;86.63;96148.00;5073386;28;20083;-57
2020/12/28 00:18:16;;;;;;;22.40;5.28;;;;;;;2.37;86.26;96145.69;5072675;28;20119;-56
2020/12/28 00:20:42;;;;;;;16.67;3.50;;;;;;;2.38;86.71;96130.09;5055302;28;20124;-58
2020/12/28 00:23:09;;;;;;;10.88;3.80;;;;;;;2.39;86.75;96137.88;5072891;28;20520;-59
2020/12/28 00:25:37;;;;;;;6.78;2.47;;;;;;;2.42;86.69;96136.28;5073186;28;20047;-58
2020/12/28 00:28:03;;;;;;;13.60;2.65;;;;;;;2.46;86.66;96150.69;5055057;28;20051;-57
2020/12/28 00:30:30;;;;;;;10.23;3.38;;;;;;;2.50;86.68;96140.50;5055269;28;20064;-55
2020/12/28 00:32:56;;;;;;;5.95;2.22;;;;;;;2.52;86.35;96138.13;5073286;28;20041;-58
2020/12/28 00:35:22;;;;;;;6.32;1.60;;;;;;;2.56;86.57;96138.88;5072510;28;20436;-57
2020/12/28 00:37:49;;;;;;;4.28;1.80;;;;;;;2.57;86.37;96154.06;5071913;28;20114;-56
2020/12/28 00:40:15;;;;;;;2.35;1.75;;;;;;;2.61;86.30;96152.09;5074809;28;20130;-58
2020/12/28 00:42:41;;;;;;;3.05;1.15;;;;;;;2.63;86.39;96144.28;5090968;28;20035;-56
2020/12/28 00:45:11;;;;;;;2.03;1.35;;;;;;;2.66;86.06;96139.94;5091970;28;20119;-57
2020/12/28 00:47:37;;;;;;;2.72;1.23;;;;;;;2.67;86.49;96136.84;5092278;28;20398;-55
2020/12/28 00:50:05;;;;;;;2.20;1.27;;;;;;;2.67;86.28;96125.13;5073886;28;20063;-58
2020/12/28 00:52:31;;;;;;;4.82;1.48;;;;;;;2.67;86.07;96125.91;5092869;28;20040;-57
2020/12/28 00:54:57;;;;;;;2.72;0.85;;;;;;;2.67;86.07;96109.53;5093210;28;20064;-57
2020/12/28 00:57:24;;;;;;;7.53;1.00;;;;;;;2.67;86.20;96109.53;5092805;28;20063;-59
2020/12/28 00:59:50;;;;;;;5.10;2.25;;;;;;;2.68;85.94;96102.88;5093042;28;20230;-60
2020/12/28 01:02:16;;;;;;;5.05;1.05;;;;;;;2.70;85.91;96108.69;5093215;28;20051;-60
2020/12/28 01:04:42;;;;;;;5.30;0.75;;;;;;;2.69;86.28;96093.50;5092773;28;20131;-59
2020/12/28 01:07:09;;;;;;;9.45;2.88;;;;;;;2.71;86.53;96104.00;5091348;28;20566;-55
2020/12/28 01:09:35;;;;;;;3.50;1.45;;;;;;;2.69;86.43;96101.69;5093169;28;20467;-54
2020/12/28 01:12:01;;;;;;;3.60;1.05;;;;;;;2.69;86.25;96103.66;5092986;28;20048;-57
2020/12/28 01:14:27;;;;;;;4.60;1.38;;;;;;;2.67;86.59;96087.69;5092957;28;20458;-51
2020/12/28 01:16:54;;;;;;;4.60;1.35;;;;;;;2.67;86.84;96081.44;5092757;28;20048;-57
2020/12/28 01:19:20;;;;;;;5.07;1.30;;;;;;;2.68;86.83;96072.06;5092613;28;20083;-58
2020/12/28 01:21:46;;;;;;;7.60;1.33;;;;;;;2.69;86.84;96068.94;5093247;28;20071;-56
2020/12/28 01:24:12;;;;;;;9.25;1.45;;;;;;;2.68;87.21;96070.09;5093174;28;20435;-58
2020/12/28 01:26:39;;;;;;;7.68;1.80;;;;;;;2.70;87.35;96084.13;5092078;28;20043;-58
2020/12/28 01:29:05;;;;;;;14.15;1.88;;;;;;;2.69;87.24;96077.13;5092856;28;20401;-58
2020/12/28 01:31:31;;;;;;;16.00;5.05;;;;;;;2.72;87.07;96081.78;5092176;28;20048;-59
2020/12/28 01:33:58;;;;;;;11.32;2.05;;;;;;;2.75;86.99;96096.56;5075494;28;20485;-60
2020/12/28 01:36:44;;;;;;;12.32;2.22;;;;;;;2.77;87.05;96100.44;5096422;28;20127;-57
2020/12/28 01:39:20;;;;;;;5.15;1.33;;;;;;;2.81;87.18;96092.97;5079963;28;20443;-57
2020/12/28 01:41:47;;;;;;;11.77;2.20;;;;;;;2.88;86.99;96100.31;5095755;28;20089;-59
2020/12/28 01:44:13;;;;;;;10.65;1.60;;;;;;;2.92;86.82;96087.38;5096236;28;20129;-59
2020/12/28 01:46:40;;;;;;;8.50;1.80;;;;;;;2.95;87.11;96097.50;5095959;28;20513;-59
2020/12/28 01:49:06;;;;;;;6.30;1.88;;;;;;;2.96;86.82;96099.06;5096355;28;20101;-58
2020/12/28 01:51:32;;;;;;;19.95;3.00;;;;;;;2.98;86.84;96094.75;5096031;28;20044;-56
2020/12/28 01:54:02;;;;;;;11.80;1.88;;;;;;;3.00;87.01;96083.41;5095958;28;20047;-58
2020/12/28 01:56:31;;;;;;;7.57;1.70;;;;;;;3.01;87.11;96083.00;5095516;28;20052;-58
2020/12/28 01:58:58;;;;;;;9.65;1.95;;;;;;;3.01;86.73;96080.28;5096367;28;20043;-58
2020/12/28 02:01:25;;;;;;;6.38;1.60;;;;;;;3.03;86.70;96072.44;5095118;28;20106;-58
2020/12/28 02:03:51;;;;;;;6.72;1.48;;;;;;;3.04;86.93;96073.22;5087658;28;20445;-58
2020/12/28 02:06:18;;;;;;;16.00;2.70;;;;;;;3.07;86.58;96073.16;5074345;28;20127;-58
2020/12/28 02:08:44;;;;;;;10.75;1.75;;;;;;;3.06;86.60;96068.88;5075884;28;20123;-59
2020/12/28 02:11:11;;;;;;;10.18;2.42;;;;;;;3.08;86.57;96052.06;5075594;28;20040;-58
2020/12/28 02:13:37;;;;;;;11.05;2.05;;;;;;;3.11;86.23;96072.34;5075656;28;20086;-56
2020/12/28 02:16:03;;;;;;;14.07;4.03;;;;;;;3.14;86.45;96082.44;5089796;28;20109;-56
2020/12/28 02:18:29;;;;;;;13.25;2.17;;;;;;;3.15;86.20;96089.47;5095640;28;20098;-54
2020/12/28 02:20:56;;;;;;;20.98;3.65;;;;;;;3.16;86.01;96082.81;5077350;28;20068;-59
2020/12/28 02:23:22;;;;;;;8.85;1.80;;;;;;;3.18;86.17;96083.19;5095720;28;20078;-56
2020/12/28 02:25:48;;;;;;;6.50;1.30;;;;;;;3.18;86.07;96077.72;5095589;28;20064;-57
2020/12/28 02:28:15;;;;;;;10.65;2.05;;;;;;;3.22;85.88;96078.44;5095381;28;20044;-57
2020/12/28 02:30:42;;;;;;;11.60;2.42;;;;;;;3.23;86.02;96088.19;5095448;28;20405;-56
2020/12/28 02:33:08;;;;;;;12.77;2.00;;;;;;;3.26;85.73;96085.41;5077395;28;20040;-58
2020/12/28 02:35:34;;;;;;;9.27;2.72;;;;;;;3.28;85.85;96099.44;5095171;28;20129;-58
2020/12/28 02:38:04;;;;;;;17.08;3.92;;;;;;;3.28;85.93;96099.44;5095061;28;20032;-59
2020/12/28 02:40:30;;;;;;;13.32;2.10;;;;;;;3.28;85.76;96113.13;5077559;28;20073;-59
2020/12/28 02:42:56;;;;;;;16.65;2.65;;;;;;;3.29;85.97;96094.72;5077308;28;20055;-57
2020/12/28 02:45:23;;;;;;;17.17;2.65;;;;;;;3.30;86.11;96129.09;5076207;28;20037;-60
2020/12/28 02:47:49;;;;;;;12.32;4.68;;;;;;;3.32;86.24;96123.97;5076971;28;20429;-59
2020/12/28 02:50:15;;;;;;;16.05;3.72;;;;;;;3.33;86.14;96120.06;5095152;28;20043;-58
2020/12/28 02:52:45;;;;;;;10.80;2.03;;;;;;;3.31;86.19;96131.41;5094862;28;20040;-60
2020/12/28 02:55:11;;;;;;;9.05;2.05;;;;;;;3.34;86.30;96140.75;5094579;28;20075;-57
2020/12/28 02:57:38;;;;;;;16.73;2.70;;;;;;;3.37;86.13;96145.38;5076958;28;20516;-57
2020/12/28 03:00:05;;;;;;;14.55;2.33;;;;;;;3.37;85.69;96140.69;5094477;28;20074;-58
2020/12/28 03:02:31;;;;;;;10.73;2.50;;;;;;;3.43;85.71;96151.97;5093834;28;20123;-56
2020/12/28 03:04:58;;;;;;;16.90;5.28;;;;;;;3.47;85.48;96158.13;5094842;28;20075;-57
2020/12/28 03:07:24;;;;;;;7.53;1.55;;;;;;;3.47;85.92;96174.53;5094678;28;20090;-58
2020/12/28 03:09:53;;;;;;;7.97;2.17;;;;;;;3.51;85.54;96164.34;5093482;28;20044;-59
2020/12/28 03:12:20;;;;;;;9.48;2.17;;;;;;;3.52;85.27;96179.59;5094728;28;20040;-57
2020/12/28 03:14:46;;;;;;;6.88;1.85;;;;;;;3.53;85.94;96197.53;5095025;28;20082;-56
2020/12/28 03:17:12;;;;;;;13.30;2.03;;;;;;;3.53;85.67;96198.31;5094362;28;20477;-57
2020/12/28 03:19:39;;;;;;;14.13;1.88;;;;;;;3.56;85.56;96185.75;5093721;28;20097;-56
2020/12/28 03:22:06;;;;;;;7.80;2.28;;;;;;;3.55;85.60;96197.88;5094352;28;20485;-57
2020/12/28 03:24:32;;;;;;;7.38;2.17;;;;;;;3.55;85.97;96198.66;5094325;28;20043;-54
2020/12/28 03:27:02;;;;;;;3.70;1.27;;;;;;;3.57;85.57;96214.66;5094609;28;20044;-58
2020/12/28 03:29:30;;;;;;;5.70;0.88;;;;;;;3.59;85.36;96217.75;5093531;28;20064;-56
2020/12/28 03:31:58;;;;;;;1.75;0.90;;;;;;;3.58;85.06;96230.66;5094364;28;20047;-56
2020/12/28 03:34:24;;;;;;;4.70;0.88;;;;;;;3.60;85.48;96231.00;5093576;28;20071;-58
2020/12/28 03:36:51;;;;;;;2.95;0.75;;;;;;;3.59;85.24;96242.38;5094034;28;20083;-56
2020/12/28 03:39:18;;;;;;;6.43;0.63;;;;;;;3.58;85.58;96238.06;5076097;28;20075;-58
2020/12/28 03:41:44;;;;;;;2.72;1.33;;;;;;;3.57;85.29;96258.41;5076517;28;20109;-55
2020/12/28 03:44:22;;;;;;;3.92;0.63;;;;;;;3.59;85.29;96264.25;5108673;28;20132;-58
2020/12/28 03:46:48;;;;;;;0.68;0.52;;;;;;;3.60;85.19;96282.22;5114396;28;20040;-58
2020/12/28 03:49:15;;;;;;;3.65;0.60;;;;;;;3.59;85.08;96286.13;5113772;28;20072;-54
2020/12/28 03:51:42;;;;;;;2.13;0.75;;;;;;;3.60;85.52;96293.91;5114733;28;20054;-55
2020/12/28 03:54:08;;;;;;;4.03;0.68;;;;;;;3.59;85.16;96306.03;5091982;28;20123;-55
2020/12/28 03:56:34;;;;;;;7.28;0.77;;;;;;;3.59;85.32;96321.66;5110824;28;20489;-55
2020/12/28 03:59:00;;;;;;;1.48;0.70;;;;;;;3.59;85.30;96324.41;5113922;28;20132;-55
2020/12/28 04:01:27;;;;;;;2.45;0.75;;;;;;;3.58;85.28;96341.97;5112824;28;20078;-56
2020/12/28 04:04:12;;;;;;;6.22;3.45;;;;;;;3.57;85.37;96357.59;5087296;28;20490;-55
2020/12/28 04:06:39;;;;;;;4.57;0.93;;;;;;;3.58;85.19;96369.31;5075337;28;20056;-55
2020/12/28 04:09:05;;;;;;;4.60;1.40;;;;;;;3.58;85.60;96374.78;5075449;28;20070;-54
2020/12/28 04:11:31;;;;;;;4.82;0.90;;;;;;;3.58;85.43;96374.78;5093881;28;20456;-56
2020/12/28 04:13:58;;;;;;;6.50;0.73;;;;;;;3.58;85.67;96391.19;5093459;28;20544;-54
2020/12/28 04:16:24;;;;;;;2.38;0.85;;;;;;;3.58;85.68;96407.59;5076069;28;20044;-52
2020/12/28 04:18:51;;;;;;;0.73;0.60;;;;;;;3.57;85.76;96411.53;5093255;28;20090;-54
2020/12/28 04:21:17;;;;;;;4.97;0.70;;;;;;;3.57;85.69;96423.22;5096230;28;20117;-53
2020/12/28 04:23:43;;;;;;;3.67;1.00;;;;;;;3.58;85.29;96424.00;5113410;28;20135;-54
2020/12/28 04:26:10;;;;;;;3.65;0.55;;;;;;;3.58;85.55;96434.94;5113966;28;20044;-54
2020/12/28 04:28:36;;;;;;;1.88;0.63;;;;;;;3.58;85.61;96448.63;5111627;28;20035;-52
2020/12/28 04:31:03;;;;;;;2.63;0.70;;;;;;;3.57;85.36;96455.28;5093631;28;20097;-56
2020/12/28 04:33:29;;;;;;;9.00;0.77;;;;;;;3.57;85.58;96463.50;5093281;28;20094;-55
2020/12/28 04:35:56;;;;;;;1.48;0.52;;;;;;;3.56;85.44;96464.66;5072104;28;20040;-56
2020/12/28 04:38:22;;;;;;;2.25;0.68;;;;;;;3.56;85.24;96481.06;5088721;28;20467;-54
2020/12/28 04:41:08;;;;;;;6.22;0.80;;;;;;;3.54;85.36;96477.97;5092823;28;20044;-54
2020/12/28 04:43:55;;;;;;;1.15;0.30;;;;;;;3.51;85.12;96479.53;5081031;28;20463;-54
2020/12/28 04:46:43;;;;;;;5.57;0.55;;;;;;;3.46;85.28;96488.19;5071624;28;20124;-55
2020/12/28 04:49:30;;;;;;;1.40;0.90;;;;;;;3.45;85.18;96494.03;5072500;28;20114;-54
2020/12/28 04:52:08;;;;;;;2.05;0.20;;;;;;;3.43;85.37;96521.00;5056840;28;20458;-53
2020/12/28 04:54:35;;;;;;;3.50;0.57;;;;;;;3.41;84.98;96517.91;5072867;28;20080;-55
2020/12/28 04:57:01;;;;;;;0.73;0.63;;;;;;;3.39;85.14;96531.19;5072964;28;20079;-54
2020/12/28 04:59:27;;;;;;;1.58;0.50;;;;;;;3.38;85.05;96529.63;5054812;28;20456;-53
2020/12/28 05:01:54;;;;;;;1.63;0.47;;;;;;;3.36;84.97;96540.94;5072620;28;20045;-55
2020/12/28 05:04:24;;;;;;;5.25;0.60;;;;;;;3.36;84.90;96553.84;5072184;28;20041;-54
2020/12/28 05:07:01;;;;;;;2.63;0.75;;;;;;;3.32;84.80;96559.34;5070027;28;20102;-52
2020/12/28 05:09:28;;;;;;;1.00;0.47;;;;;;;3.31;84.98;96568.69;5073745;28;20036;-53
2020/12/28 05:11:56;;;;;;;2.85;0.63;;;;;;;3.31;84.67;96578.88;5051085;28;20033;-56
2020/12/28 05:14:23;;;;;;;3.83;1.58;;;;;;;3.28;84.82;96590.59;5076074;28;20494;-56
2020/12/28 05:16:56;;;;;;;3.17;0.70;;;;;;;3.25;84.57;96594.13;5076940;28;20158;-54
2020/12/28 05:19:22;;;;;;;10.15;2.00;;;;;;;3.20;84.85;96603.53;5076329;28;20045;-55
2020/12/28 05:21:48;;;;;;;4.05;0.80;;;;;;;3.18;85.01;96594.19;5076383;28;20071;-52
2020/12/28 05:24:16;;;;;;;0.55;0.32;;;;;;;3.16;84.99;96621.09;5076444;28;20497;-54
2020/12/28 05:26:44;;;;;;;3.20;0.57;;;;;;;3.11;84.83;96614.09;5076496;28;20041;-52
2020/12/28 05:29:18;;;;;;;1.15;0.50;;;;;;;3.07;84.72;96635.19;5075807;28;20040;-55
2020/12/28 05:31:45;;;;;;;1.08;0.30;;;;;;;3.04;84.46;96633.25;5076500;28;20449;-55
2020/12/28 05:34:15;;;;;;;5.88;1.40;;;;;;;2.99;84.74;96634.41;5054511;28;20095;-55
2020/12/28 05:36:44;;;;;;;4.15;0.43;;;;;;;2.98;84.66;96654.75;5037781;28;20518;-54
2020/12/28 05:39:14;;;;;;;2.20;0.47;;;;;;;2.97;84.93;96661.38;5040438;28;20458;-54
2020/12/28 05:42:10;;;;;;;2.38;0.40;;;;;;;2.96;84.68;96669.97;5076612;28;20067;-55
2020/12/28 05:44:41;;;;;;;4.38;0.65;;;;;;;2.97;84.70;96685.16;5092847;28;20093;-53
2020/12/28 05:47:11;;;;;;;0.50;0.30;;;;;;;2.98;84.53;96682.06;5095782;28;20040;-55
2020/12/28 05:49:42;;;;;;;2.22;0.30;;;;;;;2.99;84.89;96700.00;5096235;28;20335;-52
2020/12/28 05:52:12;;;;;;;3.55;0.30;;;;;;;3.00;85.12;96707.03;5096122;28;20036;-52
2020/12/28 05:54:40;;;;;;;3.92;0.45;;;;;;;3.10;85.01;96723.81;5096348;28;20036;-53
2020/12/28 05:57:07;;;;;;;3.50;0.43;;;;;;;3.17;85.09;96729.25;5077871;28;20048;-55
2020/12/28 05:59:35;;;;;;;6.43;0.80;;;;;;;3.23;84.83;96746.81;5093934;28;20485;-55
2020/12/28 06:02:02;;;;;;;0.47;0.20;;;;;;;3.28;84.80;96732.72;5096095;28;20047;-55
2020/12/28 06:04:28;;;;;;;3.67;0.35;;;;;;;3.32;85.27;96744.41;5077929;28;20091;-55
2020/12/28 06:06:57;;;;;;;2.85;0.70;;;;;;;3.35;85.13;96749.09;5095927;28;20097;-54
2020/12/28 06:09:24;;;;;;;3.42;0.93;;;;;;;3.37;85.21;96750.25;5077498;28;20044;-52
2020/12/28 06:12:11;;;;;;;4.10;0.80;;;;;;;3.39;84.98;96760.81;5095208;28;20054;-54
2020/12/28 06:14:58;;;;;;;2.88;0.40;;;;;;;3.43;85.12;96777.97;5093489;28;20134;-53
2020/12/28 06:17:45;;;;;;;1.55;0.70;;;;;;;3.46;84.76;96777.19;5094831;28;20138;-55
2020/12/28 06:20:29;;;;;;;3.20;0.50;;;;;;;3.48;84.15;96796.72;5102274;28;20036;-54
2020/12/28 06:23:03;;;;;;;0.90;0.32;;;;;;;3.53;83.77;96790.84;5098221;28;20039;-55
2020/12/28 06:25:30;;;;;;;5.05;0.77;;;;;;;3.57;83.75;96797.09;5089457;28;20385;-55
2020/12/28 06:27:56;;;;;;;2.72;0.80;;;;;;;3.58;83.89;96812.31;5095263;28;20040;-54
2020/12/28 06:30:23;;;;;;;0.95;0.57;;;;;;;3.56;83.55;96803.72;5077360;28;20052;-53
2020/12/28 06:33:00;;;;;;;1.45;0.40;;;;;;;3.56;82.74;96814.66;5095226;28;20507;-53
2020/12/28 06:35:30;;;;;;;1.05;0.43;;;;;;;3.57;82.89;96821.69;5095453;28;20089;-55
2020/12/28 06:38:00;;;;;;;2.47;0.30;;;;;;;3.55;82.73;96834.97;5095307;28;20032;-53
2020/12/28 06:40:39;;;;;;;1.90;0.52;;;;;;;3.53;82.36;96838.09;5095570;28;20072;-55
2020/12/28 06:43:16;;;;;;;0.73;0.50;;;;;;;3.53;82.07;96845.53;5094639;28;20060;-55
2020/12/28 06:45:45;;;;;;;5.57;0.47;;;;;;;3.48;82.50;96845.94;5095544;28;20032;-55
2020/12/28 06:48:25;;;;;;;3.03;0.65;;;;;;;3.45;82.30;96850.22;5095023;28;20126;-56
2020/12/28 06:51:14;;;;;;;2.22;0.50;;;;;;;3.42;82.17;96869.38;5093574;28;20044;-56
2020/12/28 06:53:40;;;;;;;1.73;0.57;;;;;;;3.38;82.55;96879.53;5077351;28;20127;-53
2020/12/28 06:56:08;;;;;;;2.10;1.42;;;;;;;3.35;82.08;96891.25;5077063;28;20075;-54
2020/12/28 06:58:34;;;;;;;1.27;0.60;;;;;;;3.34;82.00;96904.13;5094802;28;20402;-52
2020/12/28 07:01:03;;;;;;;1.70;0.40;;;;;;;3.36;82.38;96906.50;5077361;28;20186;-56
2020/12/28 07:03:30;;;;;;;2.13;0.60;;;;;;;3.41;82.55;96927.97;5094393;28;20494;-54
2020/12/28 07:06:04;;;;;;;0.85;0.52;;;;;;;3.43;82.10;96939.28;5094369;28;20048;-54
2020/12/28 07:08:33;;;;;;;1.35;0.30;;;;;;;3.47;82.13;96949.03;5094658;28;20093;-54
2020/12/28 07:11:04;;;;;;;1.23;0.50;;;;;;;3.53;81.33;96946.69;5076927;28;20413;-54
2020/12/28 07:13:30;;;;;;;1.90;0.40;;;;;;;3.56;81.62;96967.81;5076749;28;20122;-55
2020/12/28 07:16:15;;;;;;;5.22;0.70;;;;;;;3.59;81.52;96973.28;5093976;28;20481;-55
2020/12/28 07:18:41;;;;;;;2.88;0.32;;;;;;;3.60;81.59;96985.75;5094650;28;20063;-55
2020/12/28 07:21:07;;;;;;;2.28;0.40;;;;;;;3.63;81.54;96987.72;5094846;28;20082;-55
2020/12/28 07:23:34;;;;;;;1.75;0.35;;;;;;;3.64;81.31;96988.50;5094283;28;20044;-58
2020/12/28 07:26:10;;;;;;;5.82;0.60;;;;;;;3.64;81.06;96985.78;5094379;28;20060;-53
2020/12/28 07:28:38;;;;;;;4.43;0.95;;;;;;;3.65;81.13;96995.56;5094634;28;20040;-53
2020/12/28 07:31:06;;;;;;;0.38;0.20;;;;;;;3.62;81.09;97002.59;5094211;28;20040;-54
2020/12/28 07:33:33;;;;;;;0.65;0.20;;;;;;;3.64;81.13;97013.13;5093897;28;20040;-55
2020/12/28 07:36:08;;;;;;;2.33;0.85;;;;;;;3.65;80.54;97025.63;5094345;28;20041;-52
2020/12/28 07:38:35;;;;;;;1.73;0.50;;;;;;;3.66;81.15;97022.50;5076335;28;20444;-55
2020/12/28 07:41:25;;;;;;;1.88;0.60;;;;;;;3.68;80.97;97046.72;5092730;28;20174;-55
2020/12/28 07:44:15;;;;;;;4.40;1.02;;;;;;;3.68;81.03;97057.66;5092114;28;20063;-56
2020/12/28 07:47:10;;;;;;;1.23;0.70;;;;;;;3.67;81.09;97062.38;5092993;28;20048;-55
2020/12/28 07:50:01;;;;;;;2.15;1.02;;;;;;;3.66;81.42;97076.41;5092105;28;20520;-54
2020/12/28 07:53:03;;;;;;;2.30;0.85;;;;;;;3.64;80.94;97074.09;5093818;28;20042;-57
2020/12/28 07:55:42;;;;;;;2.83;0.82;;;;;;;3.58;80.32;97064.69;5094093;28;20082;-53
2020/12/28 07:58:23;;;;;;;1.83;0.60;;;;;;;3.52;81.02;97076.41;5093533;28;20068;-54
2020/12/28 08:00:52;;;;;;;2.50;0.70;;;;;;;3.47;80.91;97074.03;5093970;28;20093;-53
2020/12/28 08:03:46;;;;;;;2.03;0.60;;;;;;;3.41;81.02;97081.06;5092484;28;20097;-54
2020/12/28 08:06:33;;;;;;;1.23;0.70;;;;;;;3.38;80.82;97088.09;5092423;28;20055;-55
2020/12/28 08:09:07;;;;;;;2.00;0.85;;;;;;;3.39;80.87;97099.81;5093843;28;20043;-54
2020/12/28 08:11:34;;;;;;;3.88;0.88;;;;;;;3.39;80.98;97116.22;5093663;28;20036;-55
2020/12/28 08:14:09;;;;;;;1.48;1.20;;;;;;;3.35;81.18;97121.66;5076031;28;20060;-57
2020/12/28 08:16:35;;;;;;;2.63;0.65;;;;;;;3.35;81.18;97126.34;5093160;28;20071;-58
2020/12/28 08:19:02;;;;;;;2.30;0.50;;;;;;;3.31;80.67;97129.06;5093506;28;20071;-59
2020/12/28 08:21:39;;;;;;;1.17;0.60;;;;;;;3.31;80.78;97134.53;5092297;28;20433;-58
2020/12/28 08:24:05;;;;;;;2.83;1.55;;;;;;;3.29;80.96;97127.88;5093554;28;20048;-56
2020/12/28 08:26:32;;;;;;;3.58;0.80;;;;;;;3.26;81.00;97139.59;5093693;28;20040;-57
2020/12/28 08:29:00;;;;;;;0.50;0.50;;;;;;;3.24;81.22;97152.84;5097433;28;20067;-56
2020/12/28 08:31:30;;;;;;;3.30;1.15;;;;;;;3.19;80.97;97143.09;5113036;28;20097;-53
2020/12/28 08:34:14;;;;;;;2.20;0.73;;;;;;;3.17;81.12;97163.78;5113505;28;20070;-57
2020/12/28 08:36:50;;;;;;;1.35;1.08;;;;;;;3.15;81.02;97177.81;5099275;28;20040;-57
2020/12/28 08:39:21;;;;;;;6.15;0.85;;;;;;;3.14;81.23;97184.44;5094297;28;20058;-55
2020/12/28 08:41:50;;;;;;;4.25;0.65;;;;;;;3.16;80.92;97175.84;5113379;28;20039;-58
2020/12/28 08:44:41;;;;;;;0.60;0.50;;;;;;;3.12;80.78;97192.25;5116910;28;20122;-58
2020/12/28 08:47:12;;;;;;;2.47;0.70;;;;;;;3.15;81.05;97201.63;5117727;28;20114;-58
2020/12/28 08:49:41;;;;;;;5.13;0.73;;;;;;;3.17;81.36;97215.69;5097381;28;20032;-58
2020/12/28 08:52:11;;;;;;;2.20;0.85;;;;;;;3.19;81.33;97227.03;5096950;28;20461;-55
2020/12/28 08:54:37;;;;;;;4.43;1.95;;;;;;;3.20;81.14;97225.88;5097493;28;20036;-56
2020/12/28 08:57:04;;;;;;;3.17;0.80;;;;;;;3.24;80.96;97221.19;5117608;28;20388;-58
2020/12/28 08:59:31;;;;;;;1.75;0.47;;;;;;;3.24;80.96;97246.56;5117467;28;20100;-59
2020/12/28 09:01:57;;;;;;;2.95;0.70;;;;;;;3.27;81.15;97250.50;5117827;28;20435;-57
2020/12/28 09:04:24;;;;;;;3.42;1.02;;;;;;;3.28;81.17;97258.34;5095927;28;20067;-57
2020/12/28 09:07:11;;;;;;;8.85;0.70;;;;;;;3.30;81.26;97261.47;5109756;28;20048;-57
2020/12/28 09:09:58;;;;;;;5.72;1.02;;;;;;;3.32;81.18;97269.28;5099800;28;20035;-58
2020/12/28 09:12:45;;;;;;;2.05;0.88;;;;;;;3.35;81.21;97284.91;5108947;28;20036;-56
2020/12/28 09:15:31;;;;;;;2.08;0.65;;;;;;;3.37;81.59;97280.63;5096073;28;20055;-56
2020/12/28 09:18:18;;;;;;;7.05;2.50;;;;;;;3.39;81.38;97294.69;5095685;28;20185;-58
2020/12/28 09:21:06;;;;;;;1.67;0.70;;;;;;;3.41;81.40;97297.84;5081363;28;20036;-58
2020/12/28 09:23:53;;;;;;;6.40;0.70;;;;;;;3.43;81.61;97301.00;5094474;28;20135;-57
2020/12/28 09:26:39;;;;;;;5.75;1.00;;;;;;;3.45;81.48;97309.59;5094877;28;20400;-57
2020/12/28 09:29:26;;;;;;;2.05;0.73;;;;;;;3.47;81.67;97311.94;5094919;28;20040;-58
2020/12/28 09:32:13;;;;;;;4.28;1.52;;;;;;;3.45;82.04;97311.53;5095562;28;20062;-56
2020/12/28 09:35:00;;;;;;;1.08;0.70;;;;;;;3.47;81.55;97317.38;5095403;28;20036;-57
2020/12/28 09:37:46;;;;;;;3.08;0.85;;;;;;;3.49;81.68;97326.03;5087742;28;20130;-58
2020/12/28 09:40:33;;;;;;;2.63;0.70;;;;;;;3.49;81.87;97334.22;5076928;28;20490;-59
2020/12/28 09:43:20;;;;;;;3.90;0.80;;;;;;;3.51;81.68;97337.34;5059083;28;20455;-59
2020/12/28 09:46:08;;;;;;;3.25;0.65;;;;;;;3.53;81.75;97348.69;5091350;28;20073;-58
2020/12/28 09:48:53;;;;;;;5.90;1.20;;;;;;;3.55;81.71;97352.63;5092313;28;20052;-55
2020/12/28 09:55:05;;;;;;;10.52;1.10;;;;;;;3.59;81.74;97374.53;4421596;29;20113;-57
2020/12/28 09:57:34;;;;;;;2.83;0.80;;;;;;;3.60;82.04;97374.13;4880310;29;20045;-54
2020/12/28 10:00:00;;;;;;;2.00;0.70;;;;;;;3.62;81.81;97369.09;4894851;29;20494;-57
2020/12/28 10:02:27;;;;;;;1.60;1.10;;;;;;;3.64;82.14;97379.63;4897281;29;20082;-57
2020/12/28 10:04:56;;;;;;;3.25;1.50;;;;;;;3.67;82.11;97389.81;4898840;29;20119;-58
2020/12/28 10:07:22;;;;;;;3.53;1.13;;;;;;;3.70;82.07;97394.53;4891947;29;20526;-62
2020/12/28 10:09:49;;;;;;;4.90;1.20;;;;;;;3.74;82.36;97389.84;4896948;29;20040;-57
2020/12/28 10:12:18;;;;;;;5.68;1.30;;;;;;;3.76;82.25;97397.69;4898200;29;20045;-56
2020/12/28 10:14:45;;;;;;;10.05;2.15;;;;;;;3.77;82.18;97394.56;4897858;29;20049;-62
2020/12/28 10:17:11;;;;;;;15.50;9.60;;;;;;;3.82;82.37;97401.63;4894262;29;20590;-58
2020/12/28 10:19:37;;;;;;;6.57;1.50;;;;;;;3.86;82.54;97407.91;4897695;29;20040;-57
2020/12/28 10:22:07;;;;;;;2.70;0.95;;;;;;;3.87;82.07;97413.00;4875950;29;20048;-56
2020/12/28 10:24:34;;;;;;;3.35;2.13;;;;;;;3.89;81.92;97416.13;4896279;29;20566;-57
2020/12/28 10:27:00;;;;;;;6.75;1.77;;;;;;;3.90;82.40;97420.44;4897597;29;20048;-57
2020/12/28 10:29:26;;;;;;;3.58;1.20;;;;;;;3.89;82.20;97416.13;4897615;29;20728;-59
2020/12/28 10:31:57;;;;;;;3.85;1.83;;;;;;;3.92;82.00;97418.09;4889894;29;20053;-58
2020/12/28 10:34:24;;;;;;;6.05;1.45;;;;;;;3.94;82.01;97425.94;4897658;29;20451;-60
2020/12/28 10:36:52;;;;;;;6.38;2.35;;;;;;;3.95;82.48;97438.44;4897061;29;20100;-59
2020/12/28 10:39:18;;;;;;;19.65;2.30;;;;;;;3.98;82.05;97437.69;4897857;29;20075;-55
2020/12/28 10:41:45;;;;;;;8.63;1.60;;;;;;;4.00;81.98;97447.06;4897519;29;20570;-58
2020/12/28 10:44:11;;;;;;;5.78;1.33;;;;;;;4.05;81.77;97449.44;4897315;29;20071;-60
2020/12/28 10:46:38;;;;;;;5.53;1.40;;;;;;;4.07;81.82;97438.94;4897250;29;20075;-56
2020/12/28 10:49:05;;;;;;;9.18;2.30;;;;;;;4.13;81.40;97436.63;4893449;29;20080;-57
2020/12/28 10:51:32;;;;;;;9.65;1.98;;;;;;;4.19;81.33;97444.06;4896262;29;20044;-57
2020/12/28 10:53:58;;;;;;;7.20;1.67;;;;;;;4.25;81.51;97458.19;4897164;29;20567;-56
2020/12/28 10:56:30;;;;;;;7.40;1.23;;;;;;;4.30;81.52;97461.34;4895742;29;20078;-57
2020/12/28 10:58:57;;;;;;;8.73;1.70;;;;;;;4.37;81.15;97465.28;4897083;29;20055;-62
2020/12/28 11:01:26;;;;;;;8.35;1.48;;;;;;;4.40;80.96;97470.75;4897540;29;20479;-58
2020/12/28 11:03:55;;;;;;;7.88;1.15;;;;;;;4.44;80.90;97459.84;4895263;29;20100;-59
2020/12/28 11:06:23;;;;;;;3.63;1.58;;;;;;;4.44;80.84;97459.84;4893393;29;20759;-58
2020/12/28 11:08:50;;;;;;;6.75;1.33;;;;;;;4.45;81.15;97455.94;4893301;29;20408;-55
2020/12/28 11:11:21;;;;;;;5.47;1.25;;;;;;;4.42;80.65;97451.22;4897250;29;20051;-55
2020/12/28 11:13:51;;;;;;;6.15;1.83;;;;;;;4.42;80.74;97456.69;4897994;29;20162;-58
2020/12/28 11:16:25;;;;;;;6.90;1.45;;;;;;;4.38;80.57;97456.69;4896541;29;20037;-58
2020/12/28 11:18:53;;;;;;;2.65;1.25;;;;;;;4.41;80.90;97463.34;4897248;29;20044;-57
2020/12/28 11:21:19;;;;;;;4.20;1.83;;;;;;;4.40;80.56;97464.50;4897136;29;20439;-59
2020/12/28 11:24:01;;;;;;;3.85;1.77;;;;;;;4.37;80.93;97455.09;4896098;29;20128;-57
2020/12/28 11:26:29;;;;;;;7.90;2.50;;;;;;;4.36;81.09;97460.97;4885143;29;20041;-56
2020/12/28 11:28:57;;;;;;;2.45;0.80;;;;;;;4.30;81.43;97453.13;4888958;29;20119;-58
2020/12/28 11:31:23;;;;;;;1.17;0.40;;;;;;;4.26;81.29;97466.00;4885887;29;20036;-53
2020/12/28 11:33:50;;;;;;;4.05;1.50;;;;;;;4.28;81.45;97460.16;4896727;29;20048;-53
2020/12/28 11:36:17;;;;;;;3.28;0.75;;;;;;;4.24;81.66;97473.81;4896436;29;20084;-56
2020/12/28 11:38:44;;;;;;;5.70;1.02;;;;;;;4.23;81.86;97466.00;4898111;29;20076;-56
2020/12/28 11:41:12;;;;;;;1.17;0.52;;;;;;;4.21;81.87;97474.56;4903063;29;20119;-58
2020/12/28 11:43:40;;;;;;;3.03;0.75;;;;;;;4.22;82.18;97476.16;4896518;29;20494;-54
2020/12/28 11:46:07;;;;;;;2.55;0.73;;;;;;;4.22;82.27;97475.38;4896059;29;20048;-56
2020/12/28 11:48:33;;;;;;;2.83;0.93;;;;;;;4.17;82.40;97490.22;4889944;29;20123;-62
2020/12/28 11:51:04;;;;;;;2.30;0.70;;;;;;;4.13;83.01;97489.38;4896663;29;20076;-55
2020/12/28 11:53:31;;;;;;;4.20;1.40;;;;;;;4.14;82.88;97490.19;4877725;29;20100;-56
2020/12/28 11:56:13;;;;;;;4.70;0.90;;;;;;;4.16;83.40;97496.84;4895636;29;20055;-57
2020/12/28 11:58:44;;;;;;;3.97;2.30;;;;;;;4.17;83.51;97498.44;4885592;29;20127;-57
2020/12/28 12:01:13;;;;;;;3.00;1.27;;;;;;;4.18;83.46;97499.97;4895644;29;20136;-56